createdAt,value
2018-08-24T00:01:19.523Z,19.90
2018-08-24T00:03:48.128Z,19.80
2018-08-24T00:06:16.746Z,19.90
2018-08-24T00:08:45.351Z,19.80
2018-08-24T00:11:14.001Z,19.70
2018-08-24T00:13:42.683Z,19.70
2018-08-24T00:16:11.276Z,19.60
2018-08-24T00:18:39.988Z,19.50
2018-08-24T00:21:08.697Z,19.50
2018-08-24T00:23:37.291Z,19.60
2018-08-24T00:26:06.007Z,19.60
2018-08-24T00:28:34.641Z,19.50
2018-08-24T00:31:03.216Z,19.40
2018-08-24T00:33:31.915Z,19.50
2018-08-24T00:36:00.507Z,19.40
2018-08-24T00:38:29.141Z,19.40
2018-08-24T00:40:58.230Z,19.40
2018-08-24T00:43:27.637Z,19.20
2018-08-24T00:45:56.249Z,19.30
2018-08-24T00:48:24.862Z,19.30
2018-08-24T00:50:53.480Z,19.20
2018-08-24T00:53:22.097Z,19.10
2018-08-24T00:55:50.732Z,18.90
2018-08-24T00:58:19.328Z,19.00
2018-08-24T01:00:48.054Z,19.00
2018-08-24T01:03:16.643Z,19.00
2018-08-24T01:05:45.365Z,19.00
2018-08-24T01:08:13.952Z,19.00
2018-08-24T01:10:42.534Z,18.80
2018-08-24T01:13:14.623Z,18.60
2018-08-24T01:15:51.930Z,18.60
2018-08-24T01:18:21.826Z,18.60
2018-08-24T01:20:51.680Z,18.60
2018-08-24T01:23:22.352Z,18.60
2018-08-24T01:25:51.028Z,18.70
2018-08-24T01:28:20.476Z,18.50
2018-08-24T01:30:49.363Z,18.50
2018-08-24T01:33:18.650Z,18.40
2018-08-24T01:35:48.310Z,18.40
2018-08-24T01:38:16.911Z,18.40
2018-08-24T01:40:45.505Z,18.40
2018-08-24T01:43:14.211Z,18.40
2018-08-24T01:45:42.824Z,18.50
2018-08-24T01:48:11.397Z,18.50
2018-08-24T01:50:40.159Z,18.40
2018-08-24T01:53:08.797Z,18.40
2018-08-24T01:55:37.499Z,18.40
2018-08-24T01:58:06.114Z,18.40
2018-08-24T02:00:35.136Z,18.40
2018-08-24T02:03:03.764Z,18.30
2018-08-24T02:05:32.339Z,18.40
2018-08-24T02:08:00.936Z,18.20
2018-08-24T02:10:29.750Z,18.10
2018-08-24T02:13:03.671Z,18.20
2018-08-24T02:15:32.295Z,18.20
2018-08-24T02:18:06.241Z,18.10
2018-08-24T02:20:40.190Z,17.80
2018-08-24T02:23:14.288Z,17.80
2018-08-24T02:25:43.259Z,17.90
2018-08-24T02:28:11.860Z,17.90
2018-08-24T02:30:40.435Z,17.80
2018-08-24T02:33:09.029Z,17.80
2018-08-24T02:35:37.629Z,17.80
2018-08-24T02:38:06.247Z,17.90
2018-08-24T02:40:34.879Z,17.80
2018-08-24T02:43:03.597Z,17.90
2018-08-24T02:45:32.213Z,17.80
2018-08-24T02:48:00.811Z,17.60
2018-08-24T02:50:29.374Z,17.70
2018-08-24T02:52:58.002Z,17.70
2018-08-24T02:55:27.679Z,17.80
2018-08-24T02:57:56.292Z,17.80
2018-08-24T03:00:24.870Z,17.80
2018-08-24T03:02:53.444Z,17.80
2018-08-24T03:05:22.113Z,17.60
2018-08-24T03:07:50.660Z,17.40
2018-08-24T03:10:19.237Z,17.30
2018-08-24T03:12:47.851Z,17.50
2018-08-24T03:15:16.504Z,17.60
2018-08-24T03:17:50.632Z,17.50
2018-08-24T03:20:19.216Z,17.30
2018-08-24T03:22:47.797Z,17.20
2018-08-24T03:25:16.393Z,17.40
2018-08-24T03:27:44.975Z,17.40
2018-08-24T03:30:13.615Z,17.30
2018-08-24T03:32:42.239Z,17.20
2018-08-24T03:35:10.856Z,17.10
2018-08-24T03:37:39.493Z,17.10
2018-08-24T03:40:08.185Z,16.80
2018-08-24T03:42:36.780Z,16.90
2018-08-24T03:45:05.507Z,17.00
2018-08-24T03:47:34.099Z,17.20
2018-08-24T03:50:02.698Z,17.00
2018-08-24T03:52:31.347Z,17.20
2018-08-24T03:55:00.066Z,17.20
2018-08-24T03:57:28.652Z,17.00
2018-08-24T03:59:57.371Z,17.10
2018-08-24T04:02:26.044Z,17.20
2018-08-24T04:04:54.666Z,17.10
2018-08-24T04:07:23.399Z,17.00
2018-08-24T04:09:52.028Z,17.10
2018-08-24T04:12:20.720Z,17.10
2018-08-24T04:14:49.502Z,17.10
2018-08-24T04:17:53.877Z,17.20
2018-08-24T04:20:22.465Z,17.40
2018-08-24T04:22:51.122Z,17.30
2018-08-24T04:25:19.799Z,17.10
2018-08-24T04:27:48.419Z,17.00
2018-08-24T04:30:17.090Z,17.00
2018-08-24T04:32:45.704Z,17.00
2018-08-24T04:35:14.382Z,16.90
2018-08-24T04:37:43.027Z,17.00
2018-08-24T04:40:11.713Z,17.00
2018-08-24T04:42:40.396Z,16.90
2018-08-24T04:45:09.003Z,17.00
2018-08-24T04:47:37.702Z,17.20
2018-08-24T04:50:06.472Z,17.20
2018-08-24T04:52:35.096Z,17.30
2018-08-24T04:55:03.771Z,17.30
2018-08-24T04:57:32.395Z,17.20
2018-08-24T05:00:01.136Z,17.20
2018-08-24T05:02:29.755Z,17.20
2018-08-24T05:04:58.401Z,17.20
2018-08-24T05:07:27.014Z,17.20
2018-08-24T05:09:55.674Z,17.30
2018-08-24T05:12:24.311Z,17.20
2018-08-24T05:14:52.923Z,17.10
2018-08-24T05:17:21.553Z,17.20
2018-08-24T05:19:50.239Z,17.30
2018-08-24T05:22:18.867Z,17.60
2018-08-24T05:24:47.586Z,17.70
2018-08-24T05:27:16.166Z,17.70
2018-08-24T05:29:44.791Z,17.80
2018-08-24T05:32:13.399Z,18.00
2018-08-24T05:34:42.026Z,18.10
2018-08-24T05:37:10.616Z,18.20
2018-08-24T05:39:39.288Z,18.20
2018-08-24T05:42:07.981Z,18.30
2018-08-24T05:44:36.607Z,18.60
2018-08-24T05:47:05.343Z,18.60
2018-08-24T05:49:33.967Z,18.60
2018-08-24T05:52:02.656Z,18.70
2018-08-24T05:54:31.303Z,18.70
2018-08-24T05:56:59.946Z,18.90
2018-08-24T05:59:28.579Z,19.10
2018-08-24T06:01:57.208Z,19.20
2018-08-24T06:04:26.896Z,19.50
2018-08-24T06:06:56.204Z,19.60
2018-08-24T06:09:24.832Z,19.80
2018-08-24T06:11:53.465Z,19.80
2018-08-24T06:14:22.091Z,19.90
2018-08-24T06:16:56.139Z,19.90
2018-08-24T06:19:24.775Z,19.90
2018-08-24T06:21:53.414Z,19.90
2018-08-24T06:24:22.051Z,19.90
2018-08-24T06:26:51.710Z,20.10
2018-08-24T06:29:20.379Z,20.20
2018-08-24T06:31:49.034Z,20.20
2018-08-24T06:34:17.677Z,20.20
2018-08-24T06:36:46.318Z,20.20
2018-08-24T06:39:14.941Z,20.20
2018-08-24T06:41:44.146Z,20.10
2018-08-24T06:44:12.842Z,20.20
2018-08-24T06:46:41.482Z,20.20
2018-08-24T06:49:10.204Z,20.30
2018-08-24T06:51:38.822Z,20.30
2018-08-24T06:54:07.491Z,20.40
2018-08-24T06:56:36.123Z,20.60
2018-08-24T06:59:04.887Z,20.80
2018-08-24T07:01:33.503Z,21.30
2018-08-24T07:04:02.161Z,21.50
2018-08-24T07:06:30.804Z,21.60
2018-08-24T07:08:59.465Z,21.80
2018-08-24T07:11:28.075Z,21.70
2018-08-24T07:13:56.776Z,21.90
2018-08-24T07:16:25.451Z,21.90
2018-08-24T07:18:54.087Z,22.00
2018-08-24T07:21:22.705Z,22.00
2018-08-24T07:23:51.439Z,22.00
2018-08-24T07:26:20.050Z,21.90
2018-08-24T07:28:48.796Z,21.80
2018-08-24T07:31:17.423Z,21.80
2018-08-24T07:33:46.145Z,21.80
2018-08-24T07:36:14.835Z,21.90
2018-08-24T07:38:43.475Z,21.90
2018-08-24T07:41:12.109Z,21.80
2018-08-24T07:43:40.771Z,21.80
2018-08-24T07:46:09.389Z,21.50
2018-08-24T07:48:37.984Z,21.60
2018-08-24T07:51:06.635Z,21.70
2018-08-24T07:53:35.292Z,21.80
2018-08-24T07:56:03.915Z,22.00
2018-08-24T07:58:32.562Z,22.00
2018-08-24T08:01:01.199Z,21.90
2018-08-24T08:03:29.800Z,21.90
2018-08-24T08:05:58.454Z,21.90
2018-08-24T08:08:27.155Z,22.00
2018-08-24T08:10:55.777Z,22.10
2018-08-24T08:13:24.418Z,22.10
2018-08-24T08:15:53.053Z,22.10
2018-08-24T08:18:21.863Z,22.20
2018-08-24T08:20:50.504Z,22.30
2018-08-24T08:23:19.139Z,22.60
2018-08-24T08:25:47.826Z,22.70
2018-08-24T08:28:16.458Z,23.00
2018-08-24T08:30:45.115Z,22.70
2018-08-24T08:33:13.826Z,22.90
2018-08-24T08:35:42.524Z,22.90
2018-08-24T08:38:11.235Z,22.60
2018-08-24T08:40:39.880Z,22.40
2018-08-24T08:43:08.508Z,22.40
2018-08-24T08:45:37.111Z,22.60
2018-08-24T08:48:05.814Z,22.60
2018-08-24T08:50:34.464Z,22.40
2018-08-24T08:53:03.127Z,22.30
2018-08-24T08:55:31.712Z,22.20
2018-08-24T08:58:00.322Z,22.00
2018-08-24T09:00:28.930Z,21.90
2018-08-24T09:02:57.577Z,21.90
2018-08-24T09:05:26.155Z,21.90
2018-08-24T09:07:54.861Z,22.00
2018-08-24T09:10:23.467Z,21.80
2018-08-24T09:12:52.174Z,21.90
2018-08-24T09:15:20.756Z,22.00
2018-08-24T09:17:54.692Z,22.00
2018-08-24T09:20:28.529Z,22.10
2018-08-24T09:23:02.491Z,22.20
2018-08-24T09:25:36.504Z,22.30
2018-08-24T09:28:10.367Z,22.30
2018-08-24T09:31:00.001Z,22.50
2018-08-24T09:33:28.703Z,22.60
2018-08-24T09:35:57.431Z,22.50
2018-08-24T09:38:26.053Z,22.50
2018-08-24T09:40:58.738Z,22.50
2018-08-24T09:43:32.715Z,22.30
2018-08-24T09:46:01.364Z,22.10
2018-08-24T09:48:34.183Z,21.70
2018-08-24T09:51:07.976Z,21.70
2018-08-24T09:53:41.769Z,21.60
2018-08-24T09:56:10.437Z,21.60
2018-08-24T09:58:39.193Z,21.50
2018-08-24T10:01:13.158Z,21.50
2018-08-24T10:03:47.257Z,21.30
2018-08-24T10:06:21.294Z,21.20
2018-08-24T10:08:50.747Z,21.00
2018-08-24T10:11:19.436Z,21.20
2018-08-24T10:13:48.096Z,21.10
2018-08-24T10:16:17.074Z,21.00
2018-08-24T10:18:45.716Z,20.90
2018-08-24T10:21:14.434Z,21.00
2018-08-24T10:23:43.080Z,21.10
2018-08-24T10:26:11.739Z,21.20
2018-08-24T10:28:40.383Z,21.30
2018-08-24T10:31:09.012Z,21.10
2018-08-24T10:33:37.622Z,20.90
2018-08-24T10:36:06.350Z,20.80
2018-08-24T10:38:36.031Z,20.60
2018-08-24T10:41:04.673Z,20.40
2018-08-24T10:43:33.409Z,20.10
2018-08-24T10:46:02.125Z,20.00
2018-08-24T10:48:30.710Z,19.90
2018-08-24T10:50:59.339Z,19.80
2018-08-24T10:53:28.092Z,19.80
2018-08-24T10:55:56.785Z,19.80
2018-08-24T10:58:25.448Z,19.80
2018-08-24T11:00:54.103Z,19.80
2018-08-24T11:03:22.710Z,19.70
2018-08-24T11:05:51.331Z,19.60
2018-08-24T11:08:19.939Z,19.60
2018-08-24T11:10:48.575Z,19.80
2018-08-24T11:13:18.312Z,19.60
2018-08-24T11:15:49.665Z,19.50
2018-08-24T11:18:18.728Z,19.40
2018-08-24T11:20:47.423Z,19.40
2018-08-24T11:23:16.070Z,19.20
2018-08-24T11:25:44.821Z,19.10
2018-08-24T11:28:13.442Z,19.30
2018-08-24T11:30:42.068Z,19.40
2018-08-24T11:33:10.754Z,19.30
2018-08-24T11:35:39.455Z,19.40
2018-08-24T11:38:08.178Z,19.30
2018-08-24T11:40:36.779Z,19.40
2018-08-24T11:43:05.494Z,19.40
2018-08-24T11:45:34.242Z,19.50
2018-08-24T11:48:02.907Z,19.70
2018-08-24T11:50:31.514Z,19.90
2018-08-24T11:53:00.197Z,19.90
2018-08-24T11:55:28.916Z,19.90
2018-08-24T11:57:57.551Z,19.90
2018-08-24T12:00:31.371Z,19.80
2018-08-24T12:03:00.939Z,20.00
2018-08-24T12:05:29.667Z,19.70
2018-08-24T12:07:58.399Z,19.60
2018-08-24T12:10:27.012Z,19.60
2018-08-24T12:12:56.088Z,19.70
2018-08-24T12:15:24.736Z,19.60
2018-08-24T12:17:53.871Z,19.60
2018-08-24T12:20:22.524Z,19.80
2018-08-24T12:22:51.295Z,19.70
2018-08-24T12:25:20.004Z,19.80
2018-08-24T12:27:48.647Z,19.80
2018-08-24T12:30:17.283Z,19.50
2018-08-24T12:32:45.987Z,19.60
2018-08-24T12:35:14.643Z,19.60
2018-08-24T12:37:45.284Z,19.40
2018-08-24T12:40:14.509Z,19.50
2018-08-24T12:42:43.164Z,19.80
2018-08-24T12:45:11.919Z,19.70
2018-08-24T12:47:40.511Z,19.60
2018-08-24T12:50:09.781Z,19.50
2018-08-24T12:52:38.421Z,19.20
2018-08-24T12:55:07.240Z,19.00
2018-08-24T12:57:35.830Z,19.00
2018-08-24T13:00:04.647Z,19.00
2018-08-24T13:02:33.280Z,19.00
2018-08-24T13:05:01.953Z,19.30
2018-08-24T13:07:30.594Z,19.70
2018-08-24T13:09:59.227Z,19.90
2018-08-24T13:12:27.876Z,19.90
2018-08-24T13:14:56.524Z,19.60
2018-08-24T13:17:25.163Z,19.90
2018-08-24T13:19:53.747Z,20.00
2018-08-24T13:22:22.340Z,20.20
2018-08-24T13:24:51.010Z,20.10
2018-08-24T13:27:19.646Z,20.10
2018-08-24T13:29:48.227Z,20.10
2018-08-24T13:32:16.917Z,20.20
2018-08-24T13:34:45.510Z,20.50
2018-08-24T13:37:14.136Z,20.40
2018-08-24T13:39:42.709Z,20.30
2018-08-24T13:42:11.387Z,20.40
2018-08-24T13:44:39.993Z,20.40
2018-08-24T13:47:08.704Z,20.30
2018-08-24T13:49:38.390Z,20.20
2018-08-24T13:52:07.049Z,20.30
2018-08-24T13:54:35.785Z,20.40
2018-08-24T13:57:04.456Z,20.50
2018-08-24T13:59:33.093Z,20.30
2018-08-24T14:02:01.826Z,20.30
2018-08-24T14:04:30.515Z,20.30
2018-08-24T14:06:59.120Z,20.30
2018-08-24T14:09:27.712Z,20.20
2018-08-24T14:11:56.379Z,20.20
2018-08-24T14:14:25.066Z,20.10
2018-08-24T14:16:53.794Z,20.10
2018-08-24T14:19:22.463Z,20.30
2018-08-24T14:21:51.263Z,20.50
2018-08-24T14:24:20.006Z,20.50
2018-08-24T14:26:48.608Z,20.60
2018-08-24T14:29:17.279Z,20.60
2018-08-24T14:31:46.158Z,20.60
2018-08-24T14:34:14.774Z,20.80
2018-08-24T14:36:43.563Z,20.90
2018-08-24T14:39:12.936Z,20.70
2018-08-24T14:41:41.589Z,20.70
2018-08-24T14:44:10.306Z,20.80
2018-08-24T14:46:39.064Z,20.80
2018-08-24T14:49:07.951Z,20.90
2018-08-24T14:51:36.580Z,20.90
2018-08-24T14:54:05.388Z,20.80
2018-08-24T14:56:34.160Z,20.90
2018-08-24T14:59:02.908Z,21.10
2018-08-24T15:01:31.660Z,21.20
2018-08-24T15:04:00.383Z,21.10
2018-08-24T15:06:29.450Z,20.90
2018-08-24T15:08:59.167Z,21.00
2018-08-24T15:11:28.331Z,21.00
2018-08-24T15:13:57.892Z,21.20
2018-08-24T15:16:26.738Z,21.00
2018-08-24T15:18:55.437Z,20.90
2018-08-24T15:21:25.596Z,20.90
2018-08-24T15:23:54.300Z,20.90
2018-08-24T15:26:23.183Z,20.90
2018-08-24T15:28:51.968Z,20.80
2018-08-24T15:31:20.598Z,20.70
2018-08-24T15:33:49.268Z,20.80
2018-08-24T15:36:17.927Z,20.90
2018-08-24T15:38:46.641Z,20.80
2018-08-24T15:41:16.113Z,20.90
2018-08-24T15:43:44.784Z,21.10
2018-08-24T15:46:13.451Z,20.90
2018-08-24T15:48:42.196Z,20.80
2018-08-24T15:51:10.993Z,20.60
2018-08-24T15:53:39.780Z,20.70
2018-08-24T15:56:09.566Z,20.60
2018-08-24T15:58:38.296Z,20.60
2018-08-24T16:01:07.047Z,20.60
2018-08-24T16:03:35.799Z,20.50
2018-08-24T16:06:04.478Z,20.60
2018-08-24T16:08:33.276Z,20.50
2018-08-24T16:11:01.969Z,20.50
2018-08-24T16:13:30.639Z,20.40
2018-08-24T16:15:59.248Z,20.50
2018-08-24T16:18:27.924Z,20.50
2018-08-24T16:20:56.533Z,20.60
2018-08-24T16:23:25.341Z,20.60
2018-08-24T16:25:54.282Z,20.60
2018-08-24T16:28:23.221Z,20.50
2018-08-24T16:30:53.324Z,20.50
2018-08-24T16:33:22.093Z,20.40
2018-08-24T16:35:51.153Z,20.30
2018-08-24T16:38:19.823Z,20.20
2018-08-24T16:40:49.015Z,20.30
2018-08-24T16:43:18.791Z,20.30
2018-08-24T16:45:47.615Z,20.20
2018-08-24T16:48:16.444Z,20.20
2018-08-24T16:50:47.251Z,20.20
2018-08-24T16:53:16.024Z,20.30
2018-08-24T16:55:44.841Z,20.30
2018-08-24T16:58:13.969Z,19.90
2018-08-24T17:00:42.708Z,19.80
2018-08-24T17:03:11.328Z,19.80
2018-08-24T17:05:41.104Z,19.70
2018-08-24T17:08:09.950Z,19.70
2018-08-24T17:10:38.853Z,19.70
2018-08-24T17:13:07.495Z,19.70
2018-08-24T17:15:36.312Z,19.70
2018-08-24T17:18:05.082Z,19.60
2018-08-24T17:20:33.710Z,19.80
2018-08-24T17:23:02.314Z,19.80
2018-08-24T17:25:30.938Z,19.70
2018-08-24T17:27:59.639Z,19.70
2018-08-24T17:30:28.343Z,19.70
2018-08-24T17:32:57.132Z,19.70
2018-08-24T17:35:25.874Z,19.60
2018-08-24T17:37:54.664Z,19.60
2018-08-24T17:40:23.435Z,19.60
2018-08-24T17:42:52.259Z,19.50
2018-08-24T17:45:21.170Z,19.40
2018-08-24T17:47:50.055Z,19.40
2018-08-24T17:50:18.774Z,19.30
2018-08-24T17:52:47.443Z,19.30
2018-08-24T17:55:16.072Z,19.20
2018-08-24T17:57:44.758Z,19.10
2018-08-24T18:00:13.427Z,19.20
2018-08-24T18:02:42.131Z,19.00
2018-08-24T18:05:10.758Z,19.10
2018-08-24T18:07:39.402Z,19.00
2018-08-24T18:10:08.122Z,19.00
2018-08-24T18:12:36.860Z,19.20
2018-08-24T18:15:05.633Z,19.10
2018-08-24T18:17:34.524Z,18.90
2018-08-24T18:20:03.244Z,19.00
2018-08-24T18:22:31.897Z,18.80
2018-08-24T18:25:00.597Z,18.80
2018-08-24T18:27:29.289Z,19.00
2018-08-24T18:29:58.014Z,18.70
2018-08-24T18:32:26.646Z,18.60
2018-08-24T18:34:55.427Z,18.60
2018-08-24T18:37:24.188Z,18.60
2018-08-24T18:39:52.802Z,18.50
2018-08-24T18:42:21.475Z,18.50
2018-08-24T18:44:50.143Z,18.60
2018-08-24T18:47:18.892Z,18.40
2018-08-24T18:49:47.562Z,18.50
2018-08-24T18:52:16.299Z,18.50
2018-08-24T18:54:44.918Z,18.50
2018-08-24T18:57:13.614Z,18.40
2018-08-24T18:59:42.320Z,18.50
2018-08-24T19:02:11.984Z,18.50
2018-08-24T19:04:40.687Z,18.50
2018-08-24T19:07:09.287Z,18.50
2018-08-24T19:09:38.029Z,18.50
2018-08-24T19:12:12.154Z,18.50
2018-08-24T19:14:40.947Z,18.20
2018-08-24T19:18:16.208Z,18.20
2018-08-24T19:20:50.175Z,18.00
2018-08-24T19:23:18.874Z,18.20
2018-08-24T19:25:47.559Z,18.20
2018-08-24T19:28:21.447Z,18.20
2018-08-24T19:30:50.089Z,18.00
2018-08-24T19:33:18.903Z,18.00
2018-08-24T19:35:47.647Z,18.20
2018-08-24T19:38:17.245Z,18.20
2018-08-24T19:40:51.160Z,18.10
2018-08-24T19:43:19.887Z,18.00
2018-08-24T19:45:48.613Z,18.10
2018-08-24T19:48:22.559Z,18.10
2018-08-24T19:50:51.235Z,18.00
2018-08-24T19:53:19.957Z,17.80
2018-08-24T19:55:48.616Z,17.90
2018-08-24T19:58:22.503Z,18.00
2018-08-24T20:00:51.286Z,18.00
2018-08-24T20:03:19.787Z,17.90
2018-08-24T20:05:53.741Z,17.70
2018-08-24T20:08:27.574Z,17.70
2018-08-24T20:10:56.222Z,17.90
2018-08-24T20:13:24.844Z,17.80
2018-08-24T20:15:58.695Z,17.80
2018-08-24T20:18:27.445Z,17.90
2018-08-24T20:20:56.055Z,17.90
2018-08-24T20:23:24.694Z,17.90
2018-08-24T20:25:53.271Z,17.80
2018-08-24T20:28:21.838Z,17.80
2018-08-24T20:30:50.454Z,17.90
2018-08-24T20:33:18.994Z,17.90
2018-08-24T20:35:47.680Z,17.90
2018-08-24T20:38:16.274Z,17.90
2018-08-24T20:40:44.863Z,17.70
2018-08-24T20:43:13.466Z,17.70
2018-08-24T20:45:42.130Z,17.70
2018-08-24T20:48:10.744Z,17.80
2018-08-24T20:50:39.404Z,17.70
2018-08-24T20:53:08.005Z,17.70
2018-08-24T20:55:36.674Z,17.70
2018-08-24T20:58:05.323Z,17.60
2018-08-24T21:00:34.018Z,17.60
2018-08-24T21:03:02.727Z,17.60
2018-08-24T21:05:31.343Z,17.60
2018-08-24T21:07:59.968Z,17.50
2018-08-24T21:10:28.578Z,17.50
2018-08-24T21:12:57.336Z,17.60
2018-08-24T21:15:25.927Z,17.60
2018-08-24T21:18:01.075Z,17.60
2018-08-24T21:20:29.690Z,17.60
2018-08-24T21:22:58.314Z,17.60
2018-08-24T21:25:26.899Z,17.60
2018-08-24T21:27:55.655Z,17.60
2018-08-24T21:30:24.259Z,17.40
2018-08-24T21:32:52.955Z,17.30
2018-08-24T21:35:21.542Z,17.40
2018-08-24T21:37:50.325Z,17.40
2018-08-24T21:40:18.917Z,17.40
2018-08-24T21:42:47.686Z,17.30
2018-08-24T21:45:16.265Z,17.30
2018-08-24T21:47:44.909Z,17.20
2018-08-24T21:50:13.611Z,17.20
2018-08-24T21:52:42.267Z,17.20
2018-08-24T21:55:10.917Z,17.10
2018-08-24T21:57:39.597Z,17.20
2018-08-24T22:00:11.966Z,17.00
2018-08-24T22:02:40.684Z,17.10
2018-08-24T22:05:09.331Z,17.10
2018-08-24T22:07:38.006Z,17.10
2018-08-24T22:10:06.660Z,17.00
2018-08-24T22:12:35.514Z,16.90
2018-08-24T22:15:04.397Z,16.90
2018-08-24T22:17:33.039Z,16.90
2018-08-24T22:20:01.793Z,16.90
2018-08-24T22:22:30.456Z,16.90
2018-08-24T22:24:59.087Z,16.90
2018-08-24T22:27:27.680Z,16.80
2018-08-24T22:29:56.356Z,16.80
2018-08-24T22:32:24.971Z,16.70
2018-08-24T22:34:53.698Z,16.70
2018-08-24T22:37:22.471Z,16.70
2018-08-24T22:39:51.098Z,16.70
2018-08-24T22:42:19.726Z,16.60
2018-08-24T22:44:48.355Z,16.70
2018-08-24T22:47:17.004Z,16.60
2018-08-24T22:49:45.634Z,16.50
2018-08-24T22:52:14.322Z,16.60
2018-08-24T22:54:49.510Z,16.60
2018-08-24T22:57:18.155Z,16.50
2018-08-24T22:59:46.856Z,16.50
2018-08-24T23:02:15.474Z,16.40
2018-08-24T23:04:44.056Z,16.40
2018-08-24T23:07:12.668Z,16.40
2018-08-24T23:09:41.230Z,16.40
2018-08-24T23:12:09.815Z,16.40
2018-08-24T23:14:38.410Z,16.40
2018-08-24T23:17:07.027Z,16.30
2018-08-24T23:19:35.777Z,16.30
2018-08-24T23:22:04.511Z,16.30
2018-08-24T23:24:33.080Z,16.10
2018-08-24T23:27:01.759Z,16.10
2018-08-24T23:29:30.334Z,16.10
2018-08-24T23:31:58.934Z,16.20
2018-08-24T23:34:27.540Z,16.20
2018-08-24T23:36:56.134Z,16.10
2018-08-24T23:39:24.774Z,16.10
2018-08-24T23:41:53.438Z,16.20
2018-08-24T23:44:22.095Z,16.10
2018-08-24T23:46:50.857Z,16.00
2018-08-24T23:49:19.617Z,16.00
2018-08-24T23:51:48.226Z,16.20
2018-08-24T23:54:16.874Z,16.00
2018-08-24T23:56:45.455Z,16.10
2018-08-24T23:59:14.099Z,16.00
